createdAt,value
2022-10-09T00:02:36.520Z,19.50
2022-10-09T00:05:26.982Z,19.50
2022-10-09T00:08:14.046Z,19.50
2022-10-09T00:11:01.312Z,19.50
2022-10-09T00:13:48.917Z,19.50
2022-10-09T00:16:36.669Z,19.50
2022-10-09T00:19:24.075Z,19.50
2022-10-09T00:22:12.725Z,19.50
2022-10-09T00:25:00.294Z,19.50
2022-10-09T00:27:47.304Z,19.50
2022-10-09T00:30:34.494Z,19.50
2022-10-09T00:33:22.173Z,19.50
2022-10-09T00:36:13.075Z,19.50
2022-10-09T00:39:01.626Z,19.50
2022-10-09T00:41:48.993Z,19.50
2022-10-09T00:44:57.402Z,19.40
2022-10-09T00:47:48.693Z,19.40
2022-10-09T00:50:42.854Z,19.40
2022-10-09T00:53:32.173Z,19.40
2022-10-09T00:56:20.754Z,19.40
2022-10-09T00:59:09.239Z,19.30
2022-10-09T01:01:56.622Z,19.30
2022-10-09T01:04:43.801Z,19.30
2022-10-09T01:07:40.031Z,19.30
2022-10-09T01:10:37.690Z,19.30
2022-10-09T01:13:34.665Z,19.30
2022-10-09T01:16:27.650Z,19.20
2022-10-09T01:19:33.595Z,19.20
2022-10-09T01:22:37.012Z,19.20
2022-10-09T01:25:33.751Z,19.20
2022-10-09T01:28:25.289Z,19.10
2022-10-09T01:31:15.398Z,19.10
2022-10-09T01:34:03.261Z,19.10
2022-10-09T01:36:52.033Z,19.10
2022-10-09T01:39:40.437Z,19.10
2022-10-09T01:42:31.646Z,19.10
2022-10-09T01:45:20.169Z,19.00
2022-10-09T01:48:11.271Z,19.00
2022-10-09T01:51:04.980Z,19.00
2022-10-09T01:53:56.036Z,19.00
2022-10-09T01:56:47.323Z,18.90
2022-10-09T01:59:41.284Z,18.90
2022-10-09T02:02:30.257Z,18.90
2022-10-09T02:05:26.953Z,18.80
2022-10-09T02:08:18.084Z,18.80
2022-10-09T02:11:06.610Z,18.80
2022-10-09T02:13:55.152Z,18.80
2022-10-09T02:16:46.673Z,18.70
2022-10-09T02:19:41.184Z,18.70
2022-10-09T02:22:32.137Z,18.70
2022-10-09T02:25:20.007Z,18.70
2022-10-09T02:28:07.701Z,18.70
2022-10-09T02:31:05.255Z,18.70
2022-10-09T02:33:57.432Z,18.70
2022-10-09T02:36:45.874Z,18.70
2022-10-09T02:39:32.942Z,18.70
2022-10-09T02:42:20.289Z,18.70
2022-10-09T02:45:09.952Z,18.60
2022-10-09T02:47:57.250Z,18.60
2022-10-09T02:50:44.469Z,18.60
2022-10-09T02:53:33.303Z,18.60
2022-10-09T02:56:20.501Z,18.60
2022-10-09T02:59:07.547Z,18.60
2022-10-09T03:01:55.858Z,18.60
2022-10-09T03:04:43.103Z,18.60
2022-10-09T03:07:30.247Z,18.60
2022-10-09T03:10:19.579Z,18.60
2022-10-09T03:13:07.241Z,18.60
2022-10-09T03:15:54.573Z,18.60
2022-10-09T03:18:42.402Z,18.70
2022-10-09T03:21:30.005Z,18.60
2022-10-09T03:24:17.466Z,18.60
2022-10-09T03:27:06.389Z,18.60
2022-10-09T03:29:53.678Z,18.60
2022-10-09T03:32:40.822Z,18.60
2022-10-09T03:35:28.005Z,18.60
2022-10-09T03:38:15.507Z,18.60
2022-10-09T03:41:04.736Z,18.60
2022-10-09T03:43:53.336Z,18.60
2022-10-09T03:46:40.812Z,18.60
2022-10-09T03:49:27.916Z,18.60
2022-10-09T03:52:14.917Z,18.60
2022-10-09T03:55:02.351Z,18.60
2022-10-09T03:57:49.634Z,18.60
2022-10-09T04:00:38.699Z,18.50
2022-10-09T04:03:27.229Z,18.50
2022-10-09T04:06:14.307Z,18.50
2022-10-09T04:09:02.374Z,18.50
2022-10-09T04:11:49.681Z,18.50
2022-10-09T04:14:36.694Z,18.50
2022-10-09T04:17:25.345Z,18.40
2022-10-09T04:20:12.686Z,18.40
2022-10-09T04:22:59.613Z,18.40
2022-10-09T04:25:46.722Z,18.40
2022-10-09T04:28:34.723Z,18.40
2022-10-09T04:31:21.993Z,18.40
2022-10-09T04:34:10.643Z,18.40
2022-10-09T04:36:57.998Z,18.40
2022-10-09T04:39:45.203Z,18.40
2022-10-09T04:42:32.569Z,18.40
2022-10-09T04:45:19.717Z,18.40
2022-10-09T04:48:06.950Z,18.40
2022-10-09T04:50:55.785Z,18.40
2022-10-09T04:53:44.091Z,18.40
2022-10-09T04:56:31.315Z,18.40
2022-10-09T04:59:18.430Z,18.40
2022-10-09T05:02:05.960Z,18.40
2022-10-09T05:04:52.805Z,18.40
2022-10-09T05:07:41.280Z,18.50
2022-10-09T05:10:28.529Z,18.50
2022-10-09T05:13:15.605Z,18.50
2022-10-09T05:16:04.000Z,18.50
2022-10-09T05:18:54.063Z,18.50
2022-10-09T05:21:41.181Z,18.40
2022-10-09T05:24:30.326Z,18.40
2022-10-09T05:27:17.666Z,18.40
2022-10-09T05:30:05.612Z,18.40
2022-10-09T05:32:52.958Z,18.40
2022-10-09T05:35:40.278Z,18.30
2022-10-09T05:38:28.527Z,18.30
2022-10-09T05:41:19.386Z,18.30
2022-10-09T05:44:06.624Z,18.30
2022-10-09T05:46:54.094Z,18.30
2022-10-09T05:49:41.039Z,18.30
2022-10-09T05:52:28.332Z,18.30
2022-10-09T05:55:15.634Z,18.30
2022-10-09T05:58:04.860Z,18.30
2022-10-09T06:00:52.328Z,18.30
2022-10-09T06:03:40.544Z,18.30
2022-10-09T06:06:10.337Z,18.20
2022-10-09T06:08:39.829Z,18.20
2022-10-09T06:11:13.614Z,18.20
2022-10-09T06:13:44.748Z,18.30
2022-10-09T06:16:15.324Z,18.30
2022-10-09T06:18:49.277Z,18.30
2022-10-09T06:21:18.731Z,18.30
2022-10-09T06:23:51.278Z,18.30
2022-10-09T06:26:21.426Z,18.30
2022-10-09T06:28:52.400Z,18.30
2022-10-09T06:31:23.975Z,18.30
2022-10-09T06:33:54.883Z,18.30
2022-10-09T06:36:26.247Z,18.30
2022-10-09T06:38:55.840Z,18.30
2022-10-09T06:41:26.698Z,18.30
2022-10-09T06:43:58.341Z,18.30
2022-10-09T06:46:30.048Z,18.30
2022-10-09T06:49:00.753Z,18.30
2022-10-09T06:51:30.783Z,18.30
2022-10-09T06:54:02.020Z,18.30
2022-10-09T06:56:33.262Z,18.30
2022-10-09T06:59:05.005Z,18.30
2022-10-09T07:01:34.034Z,18.40
2022-10-09T07:04:07.035Z,18.40
2022-10-09T07:06:39.888Z,18.40
2022-10-09T07:09:11.828Z,18.40
2022-10-09T07:11:43.113Z,18.50
2022-10-09T07:14:15.970Z,18.50
2022-10-09T07:16:48.373Z,18.50
2022-10-09T07:19:18.708Z,18.60
2022-10-09T07:21:50.117Z,18.60
2022-10-09T07:24:20.598Z,18.60
2022-10-09T07:26:50.030Z,18.70
2022-10-09T07:29:21.148Z,18.80
2022-10-09T07:31:50.731Z,18.80
2022-10-09T07:34:19.355Z,18.90
2022-10-09T07:36:47.957Z,18.90
2022-10-09T07:39:19.054Z,19.00
2022-10-09T07:41:47.933Z,19.00
2022-10-09T07:44:16.695Z,19.10
2022-10-09T07:46:46.977Z,19.10
2022-10-09T07:49:15.701Z,19.20
2022-10-09T07:51:44.321Z,19.30
2022-10-09T07:54:13.010Z,19.30
2022-10-09T07:56:41.633Z,19.40
2022-10-09T07:59:14.231Z,19.50
2022-10-09T08:01:43.537Z,19.50
2022-10-09T08:04:13.626Z,19.60
2022-10-09T08:06:42.244Z,19.70
2022-10-09T08:09:10.871Z,19.70
2022-10-09T08:11:41.222Z,19.80
2022-10-09T08:14:19.182Z,19.80
2022-10-09T08:16:48.633Z,19.90
2022-10-09T08:19:18.600Z,20.00
2022-10-09T08:21:47.196Z,20.00
2022-10-09T08:24:15.888Z,20.10
2022-10-09T08:26:45.411Z,20.20
2022-10-09T08:29:16.070Z,20.20
2022-10-09T08:31:44.753Z,20.30
2022-10-09T08:34:14.204Z,20.30
2022-10-09T08:36:44.518Z,20.40
2022-10-09T08:39:13.346Z,20.40
2022-10-09T08:41:46.645Z,20.50
2022-10-09T08:44:20.457Z,20.50
2022-10-09T08:47:03.292Z,20.60
2022-10-09T08:49:41.923Z,20.60
2022-10-09T08:52:36.980Z,20.70
2022-10-09T08:55:16.885Z,20.70
2022-10-09T08:57:48.553Z,20.80
2022-10-09T09:00:19.653Z,20.80
2022-10-09T09:03:30.127Z,20.80
2022-10-09T09:06:07.467Z,20.90
2022-10-09T09:08:46.743Z,21.00
2022-10-09T09:11:25.106Z,21.00
2022-10-09T09:14:04.659Z,21.00
2022-10-09T09:16:40.908Z,21.10
2022-10-09T09:19:33.890Z,21.10
2022-10-09T09:22:02.895Z,21.20
2022-10-09T09:24:39.171Z,21.20
2022-10-09T09:27:15.138Z,21.30
2022-10-09T09:29:48.599Z,21.40
2022-10-09T09:32:23.091Z,21.40
2022-10-09T09:34:52.063Z,21.50
2022-10-09T09:37:20.742Z,21.60
2022-10-09T09:42:39.589Z,21.70
2022-10-09T09:45:19.121Z,21.80
2022-10-09T09:47:54.397Z,21.90
2022-10-09T09:50:47.141Z,21.90
2022-10-09T09:53:27.301Z,22.00
2022-10-09T09:55:58.002Z,22.10
2022-10-09T09:58:37.484Z,22.20
2022-10-09T10:01:08.211Z,22.30
2022-10-09T10:03:37.592Z,22.30
2022-10-09T10:06:21.808Z,22.30
2022-10-09T10:09:01.159Z,22.30
2022-10-09T10:11:33.207Z,22.30
2022-10-09T10:14:08.474Z,22.30
2022-10-09T10:16:39.896Z,22.30
2022-10-09T10:19:21.691Z,22.20
2022-10-09T10:21:57.224Z,22.20
2022-10-09T10:24:30.061Z,22.10
2022-10-09T10:27:06.547Z,22.00
2022-10-09T10:29:40.168Z,22.00
2022-10-09T10:32:18.796Z,21.90
2022-10-09T10:34:54.585Z,21.80
2022-10-09T10:37:32.806Z,21.80
2022-10-09T10:40:08.822Z,21.70
2022-10-09T10:42:46.675Z,21.70
2022-10-09T10:45:19.363Z,21.60
2022-10-09T10:47:53.709Z,21.60
2022-10-09T10:50:22.915Z,21.60
2022-10-09T10:53:07.821Z,21.60
2022-10-09T10:55:50.283Z,21.50
2022-10-09T10:58:31.548Z,21.50
2022-10-09T11:01:22.438Z,21.50
2022-10-09T11:04:23.642Z,21.40
2022-10-09T11:07:03.168Z,21.40
2022-10-09T11:09:40.737Z,21.40
2022-10-09T11:12:24.855Z,21.40
2022-10-09T11:15:11.101Z,21.40
2022-10-09T11:17:46.069Z,21.30
2022-10-09T11:20:49.825Z,21.30
2022-10-09T11:23:33.638Z,21.40
2022-10-09T11:26:12.440Z,21.30
2022-10-09T11:28:47.898Z,21.30
2022-10-09T11:31:23.739Z,21.30
2022-10-09T11:34:00.094Z,21.30
2022-10-09T11:36:35.430Z,21.30
2022-10-09T11:39:06.726Z,21.30
2022-10-09T11:41:37.463Z,21.30
2022-10-09T11:44:24.369Z,21.30
2022-10-09T11:47:08.781Z,21.30
2022-10-09T11:49:53.995Z,21.30
2022-10-09T11:52:31.581Z,21.30
2022-10-09T11:55:17.264Z,21.40
2022-10-09T11:57:46.211Z,21.30
2022-10-09T12:00:16.300Z,21.40
2022-10-09T12:02:57.625Z,21.30
2022-10-09T12:05:43.915Z,21.30
2022-10-09T12:08:19.278Z,21.40
2022-10-09T12:10:55.682Z,21.30
2022-10-09T12:13:45.152Z,21.30
2022-10-09T12:16:46.777Z,21.30
2022-10-09T12:19:20.892Z,21.40
2022-10-09T12:21:55.485Z,21.40
2022-10-09T12:24:28.092Z,21.40
2022-10-09T12:27:03.165Z,21.40
2022-10-09T12:29:41.363Z,21.40
2022-10-09T12:32:17.279Z,21.40
2022-10-09T12:34:49.264Z,21.40
2022-10-09T12:37:20.146Z,21.40
2022-10-09T12:39:51.172Z,21.40
2022-10-09T12:42:24.846Z,21.40
2022-10-09T12:44:55.971Z,21.40
2022-10-09T12:47:27.601Z,21.40
2022-10-09T12:50:00.945Z,21.40
2022-10-09T12:52:29.897Z,21.40
2022-10-09T12:54:58.510Z,21.40
2022-10-09T12:57:28.090Z,21.40
2022-10-09T12:59:57.545Z,21.40
2022-10-09T13:02:26.343Z,21.40
2022-10-09T13:05:02.307Z,21.50
2022-10-09T13:07:32.621Z,21.50
2022-10-09T13:10:06.443Z,21.50
2022-10-09T13:12:35.803Z,21.50
2022-10-09T13:15:08.744Z,21.50
2022-10-09T13:17:40.570Z,21.50
2022-10-09T13:23:05.061Z,21.50
2022-10-09T13:25:37.829Z,21.50
2022-10-09T13:28:07.219Z,21.50
2022-10-09T13:30:36.031Z,21.60
2022-10-09T13:33:04.987Z,21.60
2022-10-09T13:35:33.629Z,21.60
2022-10-09T13:38:03.628Z,21.60
2022-10-09T13:40:32.299Z,21.60
2022-10-09T13:43:04.183Z,21.60
2022-10-09T13:45:32.901Z,21.60
2022-10-09T13:48:01.629Z,21.60
2022-10-09T13:50:30.324Z,21.60
2022-10-09T13:53:00.216Z,21.60
2022-10-09T13:55:30.593Z,21.60
2022-10-09T13:57:59.368Z,21.60
2022-10-09T14:00:28.104Z,21.70
2022-10-09T14:02:57.013Z,21.60
2022-10-09T14:05:26.937Z,21.60
2022-10-09T14:07:56.141Z,21.60
2022-10-09T14:10:24.907Z,21.70
2022-10-09T14:12:55.535Z,21.60
2022-10-09T14:15:24.224Z,21.60
2022-10-09T14:17:52.833Z,21.70
2022-10-09T14:20:25.107Z,21.60
2022-10-09T14:22:53.854Z,21.70
2022-10-09T14:25:22.512Z,21.60
2022-10-09T14:27:51.095Z,21.60
2022-10-09T14:30:21.203Z,21.60
2022-10-09T14:32:51.243Z,21.70
2022-10-09T14:35:21.481Z,21.70
2022-10-09T14:37:50.662Z,21.70
2022-10-09T14:40:19.446Z,21.70
2022-10-09T14:42:48.421Z,21.70
2022-10-09T14:45:17.491Z,21.60
2022-10-09T14:47:47.491Z,21.70
2022-10-09T14:50:16.166Z,21.60
2022-10-09T14:52:44.833Z,21.60
2022-10-09T14:55:13.505Z,21.60
2022-10-09T14:57:42.199Z,21.60
2022-10-09T15:00:13.051Z,21.60
2022-10-09T15:05:12.752Z,21.60
2022-10-09T15:07:41.980Z,21.60
2022-10-09T15:10:12.294Z,21.50
2022-10-09T15:12:41.015Z,21.50
2022-10-09T15:15:11.028Z,21.60
2022-10-09T15:17:39.998Z,21.50
2022-10-09T15:20:10.065Z,21.50
2022-10-09T15:22:40.025Z,21.50
2022-10-09T15:25:10.054Z,21.50
2022-10-09T15:27:38.739Z,21.60
2022-10-09T15:30:09.051Z,21.60
2022-10-09T15:32:37.705Z,21.50
2022-10-09T15:35:07.786Z,21.50
2022-10-09T15:37:36.432Z,21.50
2022-10-09T15:40:07.524Z,21.50
2022-10-09T15:42:37.067Z,21.50
2022-10-09T15:45:06.881Z,21.50
2022-10-09T15:47:50.497Z,21.50
2022-10-09T15:50:20.030Z,21.50
2022-10-09T15:52:48.886Z,21.60
2022-10-09T15:55:19.065Z,21.60
2022-10-09T15:57:47.714Z,21.60
2022-10-09T16:00:16.979Z,21.60
2022-10-09T16:02:45.604Z,21.50
2022-10-09T16:05:14.218Z,21.50
2022-10-09T16:07:42.816Z,21.60
2022-10-09T16:10:11.950Z,21.50
2022-10-09T16:12:41.954Z,21.50
2022-10-09T16:15:11.741Z,21.50
2022-10-09T16:17:40.532Z,21.50
2022-10-09T16:20:10.502Z,21.50
2022-10-09T16:22:39.209Z,21.50
2022-10-09T16:25:08.947Z,21.50
2022-10-09T16:27:37.699Z,21.50
2022-10-09T16:30:12.073Z,21.50
2022-10-09T16:32:41.007Z,21.50
2022-10-09T16:35:10.645Z,21.50
2022-10-09T16:37:39.337Z,21.50
2022-10-09T16:40:09.261Z,21.50
2022-10-09T16:42:37.930Z,21.40
2022-10-09T16:45:10.367Z,21.50
2022-10-09T16:47:40.427Z,21.50
2022-10-09T16:50:09.980Z,21.40
2022-10-09T16:52:38.646Z,21.40
2022-10-09T16:55:08.673Z,21.40
2022-10-09T16:57:37.316Z,21.40
2022-10-09T17:00:09.328Z,21.40
2022-10-09T17:02:38.048Z,21.40
2022-10-09T17:05:07.808Z,21.40
2022-10-09T17:07:36.450Z,21.40
2022-10-09T17:10:05.867Z,21.40
2022-10-09T17:12:34.880Z,21.30
2022-10-09T17:15:03.729Z,21.30
2022-10-09T17:17:34.153Z,21.30
2022-10-09T17:20:03.310Z,21.30
2022-10-09T17:22:32.586Z,21.30
2022-10-09T17:25:01.259Z,21.20
2022-10-09T17:27:30.203Z,21.20
2022-10-09T17:29:58.787Z,21.20
2022-10-09T17:32:27.863Z,21.20
2022-10-09T17:34:58.031Z,21.20
2022-10-09T17:37:26.818Z,21.20
2022-10-09T17:39:55.497Z,21.20
2022-10-09T17:42:24.493Z,21.10
2022-10-09T17:44:53.108Z,21.10
2022-10-09T17:47:21.805Z,21.10
2022-10-09T17:49:51.770Z,21.10
2022-10-09T17:52:21.783Z,21.10
2022-10-09T17:54:50.532Z,21.00
2022-10-09T17:57:19.175Z,21.00
2022-10-09T17:59:47.720Z,21.00
2022-10-09T18:02:16.491Z,21.00
2022-10-09T18:04:45.087Z,21.00
2022-10-09T18:07:15.059Z,21.00
2022-10-09T18:09:45.369Z,20.90
2022-10-09T18:12:14.044Z,21.00
2022-10-09T18:14:42.663Z,21.00
2022-10-09T18:17:11.317Z,20.90
2022-10-09T18:19:39.915Z,20.90
2022-10-09T18:22:08.537Z,20.90
2022-10-09T18:24:37.156Z,20.90
2022-10-09T18:27:07.218Z,20.90
2022-10-09T18:29:36.019Z,20.90
2022-10-09T18:32:05.833Z,20.90
2022-10-09T18:34:39.026Z,20.80
2022-10-09T18:37:08.610Z,20.80
2022-10-09T18:39:37.268Z,20.80
2022-10-09T18:42:07.433Z,20.80
2022-10-09T18:44:40.288Z,20.80
2022-10-09T18:47:13.064Z,20.70
2022-10-09T18:49:45.686Z,20.70
2022-10-09T18:52:15.483Z,20.70
2022-10-09T18:54:46.106Z,20.70
2022-10-09T18:57:16.653Z,20.70
2022-10-09T18:59:45.555Z,20.70
2022-10-09T19:02:14.193Z,20.70
2022-10-09T19:04:42.801Z,20.60
2022-10-09T19:07:11.439Z,20.60
2022-10-09T19:09:42.922Z,20.60
2022-10-09T19:12:11.657Z,20.60
2022-10-09T19:14:41.660Z,20.60
2022-10-09T19:17:10.271Z,20.50
2022-10-09T19:19:39.136Z,20.50
2022-10-09T19:22:11.668Z,20.50
2022-10-09T19:24:42.796Z,20.50
2022-10-09T19:27:11.673Z,20.50
2022-10-09T19:29:41.742Z,20.50
2022-10-09T19:32:10.340Z,20.50
2022-10-09T19:34:39.172Z,20.40
2022-10-09T19:37:07.892Z,20.40
2022-10-09T19:39:36.565Z,20.40
2022-10-09T19:42:05.355Z,20.40
2022-10-09T19:44:34.030Z,20.40
2022-10-09T19:47:04.168Z,20.40
2022-10-09T19:49:33.275Z,20.40
2022-10-09T19:52:01.908Z,20.40
2022-10-09T19:54:32.230Z,20.40
2022-10-09T19:57:01.137Z,20.40
2022-10-09T19:59:29.911Z,20.40
2022-10-09T20:01:58.564Z,20.40
2022-10-09T20:04:49.518Z,20.40
2022-10-09T20:07:36.925Z,20.40
2022-10-09T20:10:23.980Z,20.30
2022-10-09T20:13:11.132Z,20.30
2022-10-09T20:16:00.248Z,20.30
2022-10-09T20:18:47.794Z,20.30
2022-10-09T20:21:36.687Z,20.30
2022-10-09T20:24:23.679Z,20.30
2022-10-09T20:27:10.767Z,20.30
2022-10-09T20:29:57.852Z,20.30
2022-10-09T20:32:45.221Z,20.30
2022-10-09T20:35:32.732Z,20.20
2022-10-09T20:38:25.524Z,20.20
2022-10-09T20:41:13.116Z,20.20
2022-10-09T20:44:02.523Z,20.20
2022-10-09T20:46:50.023Z,20.20
2022-10-09T20:49:37.425Z,20.20
2022-10-09T20:52:24.447Z,20.20
2022-10-09T20:55:12.965Z,20.20
2022-10-09T20:58:00.197Z,20.20
2022-10-09T21:00:47.382Z,20.20
2022-10-09T21:03:35.439Z,20.10
2022-10-09T21:06:23.291Z,20.10
2022-10-09T21:09:10.572Z,20.10
2022-10-09T21:11:59.276Z,20.10
2022-10-09T21:14:46.785Z,20.10
2022-10-09T21:17:33.821Z,20.10
2022-10-09T21:20:21.220Z,20.10
2022-10-09T21:23:09.824Z,20.10
2022-10-09T21:25:57.119Z,20.00
2022-10-09T21:28:46.946Z,20.10
2022-10-09T21:31:34.988Z,20.10
2022-10-09T21:34:22.357Z,20.10
2022-10-09T21:37:21.444Z,20.10
2022-10-09T21:40:10.302Z,20.00
2022-10-09T21:42:57.782Z,20.10
2022-10-09T21:45:50.503Z,20.10
2022-10-09T21:48:37.718Z,20.00
2022-10-09T21:51:25.265Z,20.10
2022-10-09T21:54:12.620Z,20.00
2022-10-09T21:56:59.828Z,20.00
2022-10-09T21:59:46.795Z,20.00
2022-10-09T22:02:35.419Z,20.00
2022-10-09T22:05:22.787Z,20.00
2022-10-09T22:08:10.508Z,20.00
2022-10-09T22:10:57.606Z,20.00
2022-10-09T22:13:45.348Z,20.00
2022-10-09T22:16:32.481Z,20.00
2022-10-09T22:19:20.898Z,20.00
2022-10-09T22:22:08.398Z,20.00
2022-10-09T22:24:55.932Z,20.00
2022-10-09T22:27:43.176Z,20.00
2022-10-09T22:30:30.255Z,20.00
2022-10-09T22:33:17.383Z,20.00
2022-10-09T22:36:09.985Z,19.90
2022-10-09T22:39:00.126Z,19.90
2022-10-09T22:41:47.058Z,19.90
2022-10-09T22:44:34.300Z,19.90
2022-10-09T22:47:21.721Z,19.90
2022-10-09T22:50:10.267Z,19.90
2022-10-09T22:52:58.649Z,19.90
2022-10-09T22:55:45.924Z,19.90
2022-10-09T22:58:33.214Z,19.90
2022-10-09T23:01:30.278Z,19.90
2022-10-09T23:04:19.361Z,19.90
2022-10-09T23:07:06.494Z,19.90
2022-10-09T23:09:54.886Z,19.90
2022-10-09T23:12:42.182Z,19.90
2022-10-09T23:15:29.511Z,19.90
2022-10-09T23:18:16.612Z,19.90
2022-10-09T23:21:04.754Z,19.90
2022-10-09T23:23:53.247Z,19.90
2022-10-09T23:26:42.379Z,19.90
2022-10-09T23:29:29.685Z,19.90
2022-10-09T23:32:16.757Z,19.90
2022-10-09T23:35:04.122Z,19.90
2022-10-09T23:37:53.639Z,19.90
2022-10-09T23:40:40.801Z,19.90
2022-10-09T23:43:30.315Z,19.90
2022-10-09T23:46:20.713Z,19.90
2022-10-09T23:49:07.965Z,19.90
2022-10-09T23:51:55.173Z,19.90
2022-10-09T23:54:42.659Z,19.90
2022-10-09T23:57:29.735Z,19.90
